Terminal Aerodrome Forecast
Issued by NWS Lake Charles, LA

Home | Current Version | Previous Version | Text Only | Print | Product List | Glossary On
Versions: 1 2 3 4 5 6 7 8 9 10 11 12 13 14 15 16 17 18
000
FTUS44 KLCH 051120
TAFAEX
TAF
KAEX 051120Z 0512/0612 VRB03KT P6SM VCSH FEW025 BKN250
     FM051500 20007KT P6SM VCTS BKN035CB
     FM060300 VRB03KT P6SM BKN250=

USA.gov is the U.S. government's official web portal to all federal, state and local government web resources and services.